Time;durP1;ratioP1;P1;durP2;ratioP2;P2;SDS_P1;SDS_P2;PMS_P1;PMS_P2;Temp;Humidity;BMP_temperature;BMP_pressure;BME280_temperature;BME280_humidity;BME280_pressure;Samples;Min_cycle;Max_cycle;Signal;HPM_P1;HPM_P2
2022/03/09 00:00:49;;;;;;;;;110.00;101.00;5.90;66.50;;;;;;5054582;28;8798;-64
2022/03/09 00:03:15;;;;;;;;;104.50;94.50;5.60;66.90;;;;;;5054413;28;8882;-65
2022/03/09 00:05:42;;;;;;;;;105.25;88.50;5.00;69.60;;;;;;5048184;28;8786;-63
2022/03/09 00:08:08;;;;;;;;;109.50;93.25;5.50;69.60;;;;;;5034376;28;8778;-65
2022/03/09 00:10:34;;;;;;;;;103.75;91.25;5.70;66.90;;;;;;5052632;28;8795;-65
2022/03/09 00:13:00;;;;;;;;;112.25;100.25;5.60;66.70;;;;;;5054265;28;8779;-64
2022/03/09 00:15:26;;;;;;;;;106.75;95.75;5.00;70.20;;;;;;5054206;28;8761;-64
2022/03/09 00:17:51;;;;;;;;;105.75;90.00;4.80;72.40;;;;;;5054329;28;8819;-63
2022/03/09 00:20:17;;;;;;;;;104.50;87.50;5.30;69.80;;;;;;5054432;28;8760;-64
2022/03/09 00:22:43;;;;;;;;;106.75;88.00;5.50;68.30;;;;;;5054156;28;8811;-66
2022/03/09 00:25:09;;;;;;;;;99.50;78.00;6.00;65.80;;;;;;5054539;28;8818;-66
2022/03/09 00:27:35;;;;;;;;;103.50;86.25;5.30;67.40;;;;;;5054285;28;8753;-65
2022/03/09 00:30:02;;;;;;;;;104.75;88.25;5.10;69.10;;;;;;5054129;28;8843;-63
2022/03/09 00:32:28;;;;;;;;;96.50;75.25;5.40;68.90;;;;;;5054064;28;8768;-64
2022/03/09 00:34:54;;;;;;;;;94.50;76.00;5.20;68.30;;;;;;5054293;28;8941;-64
2022/03/09 00:37:20;;;;;;;;;88.75;70.25;5.00;70.40;;;;;;5054011;28;8903;-64
2022/03/09 00:39:46;;;;;;;;;94.75;73.25;4.90;71.30;;;;;;5054042;28;8781;-65
2022/03/09 00:42:11;;;;;;;;;91.75;72.00;4.90;71.20;;;;;;5054913;28;8776;-65
2022/03/09 00:44:37;;;;;;;;;94.75;73.25;4.90;70.50;;;;;;5049492;28;8843;-66
2022/03/09 00:47:04;;;;;;;;;92.50;72.75;5.10;69.60;;;;;;5055496;28;8805;-66
2022/03/09 00:49:30;;;;;;;;;95.75;75.25;5.10;69.80;;;;;;5043351;28;8769;-66
2022/03/09 00:51:56;;;;;;;;;87.25;69.75;5.10;67.80;;;;;;5025883;28;8805;-64
2022/03/09 00:54:22;;;;;;;;;94.75;75.75;5.00;69.80;;;;;;5037938;28;9492;-65
2022/03/09 00:56:48;;;;;;;;;107.25;92.75;5.40;67.60;;;;;;5040117;28;9461;-65
2022/03/09 00:59:13;;;;;;;;;102.75;80.50;5.80;66.00;;;;;;5045312;28;8806;-66
2022/03/09 01:01:39;;;;;;;;;103.00;88.75;5.70;65.10;;;;;;5044957;28;8794;-63
2022/03/09 01:04:05;;;;;;;;;97.00;77.25;5.60;65.80;;;;;;5044109;28;8775;-66
2022/03/09 01:06:31;;;;;;;;;97.75;83.25;6.00;64.30;;;;;;5046257;28;8766;-65
2022/03/09 01:08:57;;;;;;;;;100.25;85.25;6.30;62.60;;;;;;5047176;28;8779;-65
2022/03/09 01:11:23;;;;;;;;;101.50;81.75;6.60;61.30;;;;;;5037606;28;9475;-64
2022/03/09 01:13:49;;;;;;;;;93.00;72.50;6.90;59.60;;;;;;5037650;28;8758;-66
2022/03/09 01:16:15;;;;;;;;;87.50;70.50;6.50;59.90;;;;;;5051230;28;8818;-66
2022/03/09 01:18:41;;;;;;;;;97.00;78.50;6.40;60.60;;;;;;5022481;28;8904;-64
2022/03/09 01:21:07;;;;;;;;;99.25;82.50;6.30;62.10;;;;;;5037647;28;8789;-64
2022/03/09 01:23:32;;;;;;;;;102.50;82.50;6.50;61.30;;;;;;5052240;28;9461;-63
2022/03/09 01:25:58;;;;;;;;;101.00;81.25;6.70;60.40;;;;;;5057231;28;8756;-63
2022/03/09 01:28:24;;;;;;;;;99.75;79.50;6.10;61.40;;;;;;5057271;28;8760;-65
2022/03/09 01:30:50;;;;;;;;;95.75;74.75;6.50;60.80;;;;;;5057229;28;8787;-65
2022/03/09 01:33:16;;;;;;;;;100.00;85.25;6.40;60.50;;;;;;5057465;28;8769;-65
2022/03/09 01:35:42;;;;;;;;;94.75;74.00;6.20;61.70;;;;;;5047802;28;8856;-64
2022/03/09 01:38:07;;;;;;;;;96.25;75.75;6.30;61.00;;;;;;5046145;28;8833;-66
2022/03/09 01:40:34;;;;;;;;;104.50;91.00;5.60;63.30;;;;;;5037070;28;8794;-65
2022/03/09 01:42:59;;;;;;;;;102.50;85.75;5.60;64.30;;;;;;5037324;28;8762;-66
2022/03/09 01:45:25;;;;;;;;;99.75;85.25;5.50;65.30;;;;;;5038962;28;8892;-66
2022/03/09 01:47:51;;;;;;;;;95.25;75.50;5.90;63.90;;;;;;5046773;28;8788;-64
2022/03/09 01:50:17;;;;;;;;;86.50;68.25;6.10;62.20;;;;;;5045080;28;8784;-65
2022/03/09 01:52:43;;;;;;;;;98.25;75.50;6.40;62.10;;;;;;5045718;28;8925;-66
2022/03/09 01:55:10;;;;;;;;;87.00;69.50;6.40;59.70;;;;;;5039338;28;8838;-65
2022/03/09 01:57:36;;;;;;;;;93.50;73.00;5.60;63.20;;;;;;5039192;28;9468;-66
2022/03/09 02:00:04;;;;;;;;;89.00;69.25;5.60;64.10;;;;;;5045890;28;9463;-64
2022/03/09 02:02:30;;;;;;;;;86.00;68.00;5.70;63.50;;;;;;5048889;28;8798;-64
2022/03/09 02:04:56;;;;;;;;;93.75;72.50;5.60;64.30;;;;;;5036983;28;9420;-64
2022/03/09 02:09:41;;;;;;;;;91.00;71.50;5.70;64.60;;;;;;5036905;28;9310;-64
2022/03/09 02:10:09;;;;;;;;;88.75;70.00;5.60;64.00;;;;;;5037008;28;9416;-65
2022/03/09 02:12:36;;;;;;;;;88.00;69.00;5.50;63.80;;;;;;5036484;28;8793;-66
2022/03/09 02:15:03;;;;;;;;;85.75;69.50;5.90;62.70;;;;;;5036489;28;8786;-64
2022/03/09 02:17:29;;;;;;;;;79.00;64.50;5.60;62.90;;;;;;5036421;28;8794;-67
2022/03/09 02:19:56;;;;;;;;;79.00;63.25;5.50;63.10;;;;;;5036440;28;8880;-66
2022/03/09 02:22:31;;;;;;;;;86.00;68.00;4.90;67.20;;;;;;5036359;28;8763;-66
2022/03/09 02:24:57;;;;;;;;;89.25;71.25;5.00;67.30;;;;;;5036669;28;8920;-66
2022/03/09 02:27:23;;;;;;;;;79.50;65.75;5.70;64.60;;;;;;5036282;28;8851;-64
2022/03/09 02:29:50;;;;;;;;;89.50;65.75;6.00;62.70;;;;;;5036204;28;8789;-64
2022/03/09 02:32:16;;;;;;;;;89.50;70.50;5.90;62.40;;;;;;5036154;28;8777;-64
2022/03/09 02:34:43;;;;;;;;;81.50;63.75;5.90;62.20;;;;;;5036169;28;8776;-67
2022/03/09 02:37:09;;;;;;;;;76.75;63.50;5.70;61.60;;;;;;5036058;28;8810;-65
2022/03/09 02:39:36;;;;;;;;;86.25;63.25;5.70;61.50;;;;;;5036077;28;8783;-65
2022/03/09 02:42:02;;;;;;;;;84.50;66.50;5.70;61.30;;;;;;5036280;28;8762;-64
2022/03/09 02:44:28;;;;;;;;;79.50;64.25;4.90;63.70;;;;;;5036222;28;8755;-65
2022/03/09 02:46:53;;;;;;;;;75.00;57.50;4.50;66.50;;;;;;5035875;28;8800;-66
2022/03/09 02:49:19;;;;;;;;;87.25;70.50;5.30;64.20;;;;;;5035768;28;8754;-65
2022/03/09 02:51:45;;;;;;;;;82.75;66.00;5.20;64.00;;;;;;5035787;28;8766;-68
2022/03/09 02:54:11;;;;;;;;;81.25;65.00;5.10;65.00;;;;;;5035696;28;8872;-67
2022/03/09 02:56:36;;;;;;;;;88.25;68.50;5.10;65.80;;;;;;5035848;28;8808;-65
2022/03/09 02:59:02;;;;;;;;;90.00;67.25;5.60;63.20;;;;;;5039091;28;8778;-65
2022/03/09 03:01:28;;;;;;;;;85.75;67.00;5.80;62.70;;;;;;5045819;28;8787;-66
2022/03/09 03:03:54;;;;;;;;;89.25;70.25;5.90;61.40;;;;;;5035262;28;8797;-66
2022/03/09 03:06:20;;;;;;;;;86.75;65.75;6.20;60.90;;;;;;5035552;28;8786;-65
2022/03/09 03:08:45;;;;;;;;;87.75;68.75;6.10;60.10;;;;;;5035722;28;8778;-64
2022/03/09 03:11:11;;;;;;;;;84.00;66.00;6.20;59.50;;;;;;5035673;28;8762;-65
2022/03/09 03:13:39;;;;;;;;;80.00;63.25;5.90;59.80;;;;;;5035383;28;9409;-64
2022/03/09 03:16:08;;;;;;;;;86.00;67.50;6.10;59.90;;;;;;5035486;28;8782;-65
2022/03/09 03:18:34;;;;;;;;;80.50;65.75;6.10;59.20;;;;;;5035800;28;8781;-64
2022/03/09 03:21:01;;;;;;;;;95.50;72.25;6.00;59.60;;;;;;5035469;28;8782;-64
2022/03/09 03:23:29;;;;;;;;;79.50;61.50;6.20;58.90;;;;;;5035374;28;8793;-64
2022/03/09 03:25:55;;;;;;;;;95.00;74.00;5.90;60.00;;;;;;5035208;28;8763;-65
2022/03/09 03:28:23;;;;;;;;;88.75;69.75;5.70;60.80;;;;;;5035126;28;8776;-65
2022/03/09 03:30:49;;;;;;;;;81.25;64.00;5.70;60.90;;;;;;5035124;28;8755;-65
2022/03/09 03:33:16;;;;;;;;;90.25;71.25;5.70;60.50;;;;;;5035014;28;8857;-66
2022/03/09 03:35:43;;;;;;;;;87.25;68.25;5.90;60.50;;;;;;5034958;28;8785;-64
2022/03/09 03:38:09;;;;;;;;;93.25;70.50;6.00;59.40;;;;;;5035090;28;8891;-64
2022/03/09 03:40:36;;;;;;;;;84.50;67.50;6.10;59.30;;;;;;5034835;28;8775;-63
2022/03/09 03:43:02;;;;;;;;;74.50;60.00;5.20;58.90;;;;;;5034843;28;8755;-64
2022/03/09 03:45:28;;;;;;;;;88.75;68.00;4.90;62.00;;;;;;5035037;28;8773;-64
2022/03/09 03:47:54;;;;;;;;;89.25;69.50;5.00;62.60;;;;;;5034982;28;8877;-64
2022/03/09 03:50:20;;;;;;;;;85.00;66.50;5.60;60.60;;;;;;5034977;28;9443;-65
2022/03/09 03:52:46;;;;;;;;;87.50;70.00;6.10;59.00;;;;;;5034779;28;8762;-65
2022/03/09 03:55:12;;;;;;;;;74.00;59.25;6.50;57.10;;;;;;5034453;28;8856;-65
2022/03/09 03:57:38;;;;;;;;;75.75;60.00;5.70;58.90;;;;;;5034557;28;8790;-64
2022/03/09 04:00:06;;;;;;;;;77.50;60.75;4.70;61.80;;;;;;5034632;28;8859;-65
2022/03/09 04:02:32;;;;;;;;;83.75;64.00;4.00;66.10;;;;;;5017436;28;8854;-65
2022/03/09 04:04:58;;;;;;;;;82.25;63.25;4.00;67.50;;;;;;5034522;28;8778;-64
2022/03/09 04:07:24;;;;;;;;;80.25;61.00;4.70;65.70;;;;;;5034494;28;8778;-65
2022/03/09 04:09:49;;;;;;;;;78.50;64.00;4.80;63.60;;;;;;5034510;28;8774;-65
2022/03/09 04:12:15;;;;;;;;;76.25;61.75;5.20;62.90;;;;;;5034636;28;8793;-65
2022/03/09 04:14:41;;;;;;;;;83.50;65.50;5.00;62.80;;;;;;5034237;28;8863;-66
2022/03/09 04:17:07;;;;;;;;;82.75;64.75;4.80;63.40;;;;;;5034058;28;8817;-65
2022/03/09 04:19:33;;;;;;;;;76.50;61.50;5.00;63.30;;;;;;5034395;28;8880;-64
2022/03/09 04:21:59;;;;;;;;;88.75;68.00;5.20;63.00;;;;;;5034654;28;8852;-64
2022/03/09 04:24:24;;;;;;;;;83.25;67.00;5.30;62.40;;;;;;5034514;28;9463;-64
2022/03/09 04:26:51;;;;;;;;;93.25;73.25;5.30;62.50;;;;;;5034471;28;8766;-66
2022/03/09 04:29:16;;;;;;;;;87.50;70.50;5.50;61.90;;;;;;5034520;28;8779;-64
2022/03/09 04:31:42;;;;;;;;;82.75;64.00;5.40;62.00;;;;;;5034220;28;8896;-63
2022/03/09 04:34:08;;;;;;;;;90.00;71.00;5.70;61.10;;;;;;5016771;28;8785;-64
2022/03/09 04:36:34;;;;;;;;;91.25;72.00;6.00;59.80;;;;;;5034058;28;8806;-63
2022/03/09 04:39:00;;;;;;;;;80.75;64.50;5.80;59.90;;;;;;5034185;28;8770;-65
2022/03/09 04:41:26;;;;;;;;;87.00;67.00;5.30;61.50;;;;;;5034092;28;8848;-63
2022/03/09 04:43:52;;;;;;;;;89.50;71.75;5.00;63.00;;;;;;5034389;28;8831;-63
2022/03/09 04:46:18;;;;;;;;;86.25;66.50;5.00;64.20;;;;;;5034389;28;8815;-63
2022/03/09 04:48:44;;;;;;;;;87.00;69.00;4.40;65.60;;;;;;5034118;28;9428;-64
2022/03/09 04:51:11;;;;;;;;;85.00;67.25;3.90;69.60;;;;;;5034056;28;8774;-63
2022/03/09 04:53:37;;;;;;;;;82.00;64.00;4.30;68.90;;;;;;5033909;28;8829;-64
2022/03/09 04:56:03;;;;;;;;;84.25;68.75;4.70;66.90;;;;;;5034254;28;8770;-63
2022/03/09 04:58:29;;;;;;;;;90.25;71.00;4.70;66.20;;;;;;5016584;28;8804;-64
2022/03/09 05:00:55;;;;;;;;;91.50;70.75;4.90;65.60;;;;;;5033975;28;8758;-63
2022/03/09 05:03:20;;;;;;;;;95.00;72.25;4.90;65.00;;;;;;5033890;28;8816;-63
2022/03/09 05:05:46;;;;;;;;;87.75;69.25;4.80;66.20;;;;;;5033837;28;8872;-64
2022/03/09 05:08:12;;;;;;;;;84.75;69.50;4.40;68.20;;;;;;5033857;28;8905;-64
2022/03/09 05:10:38;;;;;;;;;95.25;71.75;4.30;69.60;;;;;;5033454;28;8766;-63
2022/03/09 05:13:04;;;;;;;;;87.00;70.25;4.20;71.60;;;;;;5033825;28;8879;-64
2022/03/09 05:15:31;;;;;;;;;88.25;69.00;4.40;70.30;;;;;;5033560;28;8863;-63
2022/03/09 05:17:57;;;;;;;;;94.75;73.50;4.40;71.60;;;;;;5033489;28;8853;-63
2022/03/09 05:20:24;;;;;;;;;93.50;72.00;4.70;70.60;;;;;;5033955;28;8809;-64
2022/03/09 05:22:51;;;;;;;;;89.25;71.50;4.50;70.50;;;;;;5033833;28;8774;-64
2022/03/09 05:25:18;;;;;;;;;89.75;71.50;4.80;69.40;;;;;;5033625;28;8836;-64
2022/03/09 05:27:44;;;;;;;;;91.75;72.75;4.80;69.10;;;;;;5036718;28;8868;-64
2022/03/09 05:30:11;;;;;;;;;91.25;73.00;4.60;70.40;;;;;;5037696;28;8738;-64
2022/03/09 05:32:38;;;;;;;;;93.75;76.25;5.00;68.10;;;;;;5037472;28;8762;-64
2022/03/09 05:35:04;;;;;;;;;93.00;73.50;5.00;67.70;;;;;;5037264;28;8771;-64
2022/03/09 05:37:41;;;;;;;;;104.75;92.75;4.90;69.20;;;;;;5037074;28;8899;-64
2022/03/09 05:40:09;;;;;;;;;98.75;83.50;4.30;70.90;;;;;;5041154;28;9536;-68
2022/03/09 05:42:35;;;;;;;;;97.50;80.25;4.10;73.60;;;;;;5046037;28;8794;-64
2022/03/09 05:45:02;;;;;;;;;107.75;87.50;4.40;72.50;;;;;;5055921;28;8888;-66
2022/03/09 05:47:28;;;;;;;;;99.75;84.50;4.60;71.70;;;;;;5047656;28;8780;-63
2022/03/09 05:49:53;;;;;;;;;101.25;88.00;4.80;71.50;;;;;;5048706;28;8784;-65
2022/03/09 05:52:19;;;;;;;;;95.00;73.25;5.10;69.00;;;;;;5048481;28;9683;-64
2022/03/09 05:54:45;;;;;;;;;97.50;83.00;5.30;67.50;;;;;;5048064;28;8812;-69
2022/03/09 05:57:18;;;;;;;;;97.50;80.75;5.50;66.00;;;;;;5037727;28;8900;-64
2022/03/09 05:59:44;;;;;;;;;97.25;75.00;5.90;64.40;;;;;;5044251;28;8808;-65
2022/03/09 06:02:10;;;;;;;;;92.25;73.00;5.80;64.20;;;;;;5054804;28;9132;-65
2022/03/09 06:04:36;;;;;;;;;97.00;75.50;5.50;65.20;;;;;;5036692;28;8774;-67
2022/03/09 06:07:02;;;;;;;;;95.00;77.00;5.50;64.90;;;;;;5036873;28;8836;-66
2022/03/09 06:09:28;;;;;;;;;101.50;85.25;5.50;65.60;;;;;;5036669;28;8775;-68
2022/03/09 06:11:54;;;;;;;;;99.50;82.75;5.20;65.90;;;;;;5036739;28;9492;-67
2022/03/09 06:14:20;;;;;;;;;96.25;77.50;4.50;70.50;;;;;;5036475;28;8770;-65
2022/03/09 06:16:47;;;;;;;;;92.25;72.50;4.70;70.10;;;;;;5036633;28;8806;-65
2022/03/09 06:19:14;;;;;;;;;95.00;76.00;5.00;68.80;;;;;;5036554;28;8878;-66
2022/03/09 06:21:40;;;;;;;;;96.00;76.50;4.50;70.50;;;;;;5036339;28;8789;-66
2022/03/09 06:24:06;;;;;;;;;89.00;68.25;4.60;70.50;;;;;;5036624;28;8818;-65
2022/03/09 06:26:32;;;;;;;;;95.25;81.25;4.70;70.00;;;;;;5036271;28;8786;-64
2022/03/09 06:28:58;;;;;;;;;96.00;73.00;5.10;67.50;;;;;;5036164;28;8784;-65
2022/03/09 06:31:23;;;;;;;;;92.50;72.00;5.40;66.10;;;;;;5036075;28;8791;-66
2022/03/09 06:33:49;;;;;;;;;87.00;68.00;5.30;63.90;;;;;;5036139;28;8774;-64
2022/03/09 06:36:16;;;;;;;;;91.75;70.25;4.80;65.90;;;;;;5035887;28;8783;-63
2022/03/09 06:38:41;;;;;;;;;96.75;78.50;4.70;67.00;;;;;;5035345;28;8762;-63
2022/03/09 06:41:07;;;;;;;;;90.25;73.50;5.20;67.30;;;;;;5035887;28;8782;-63
2022/03/09 06:43:34;;;;;;;;;96.25;73.75;5.00;67.50;;;;;;5036248;28;8900;-63
2022/03/09 06:45:59;;;;;;;;;89.00;71.50;5.30;66.50;;;;;;5036141;28;8863;-63
2022/03/09 06:48:25;;;;;;;;;90.25;71.50;5.40;65.60;;;;;;5035964;28;8789;-63
2022/03/09 06:50:51;;;;;;;;;96.75;77.75;5.20;65.80;;;;;;5035826;28;8855;-63
2022/03/09 06:53:17;;;;;;;;;100.75;81.50;5.00;66.50;;;;;;5035431;28;8825;-64
2022/03/09 06:55:43;;;;;;;;;91.50;73.75;5.00;67.70;;;;;;5036072;28;8762;-63
2022/03/09 06:58:09;;;;;;;;;89.25;72.75;5.40;65.00;;;;;;5035806;28;8794;-63
2022/03/09 07:00:36;;;;;;;;;91.75;70.25;5.60;63.60;;;;;;5035609;28;9429;-63
2022/03/09 07:03:05;;;;;;;;;80.75;65.50;5.60;62.50;;;;;;5035644;28;8782;-63
2022/03/09 07:05:31;;;;;;;;;85.25;69.50;5.30;64.00;;;;;;5035596;28;9003;-63
2022/03/09 07:07:57;;;;;;;;;84.25;67.00;5.50;63.60;;;;;;5035732;28;8838;-63
2022/03/09 07:10:23;;;;;;;;;83.50;67.00;4.60;66.30;;;;;;5035416;28;8801;-63
2022/03/09 07:12:49;;;;;;;;;89.75;70.75;4.20;70.10;;;;;;5035666;28;8767;-63
2022/03/09 07:15:15;;;;;;;;;91.00;69.75;4.50;70.10;;;;;;5035318;28;8774;-63
2022/03/09 07:17:42;;;;;;;;;89.25;71.25;4.80;67.80;;;;;;5035138;28;8810;-63
2022/03/09 07:20:09;;;;;;;;;97.25;72.00;4.80;67.50;;;;;;5035364;28;9472;-63
2022/03/09 07:22:35;;;;;;;;;81.25;65.25;4.70;67.60;;;;;;5035114;28;8762;-63
2022/03/09 07:25:00;;;;;;;;;80.75;65.50;4.80;67.50;;;;;;5035494;28;8806;-64
2022/03/09 07:27:26;;;;;;;;;86.75;70.00;4.70;66.30;;;;;;5017665;28;8777;-63
2022/03/09 07:29:52;;;;;;;;;84.00;67.50;4.90;66.30;;;;;;5034718;28;9405;-63
2022/03/09 07:32:18;;;;;;;;;88.75;69.50;5.00;66.50;;;;;;5035002;28;8762;-63
2022/03/09 07:34:43;;;;;;;;;82.50;65.25;5.20;64.70;;;;;;5034971;28;8801;-65
2022/03/09 07:37:09;;;;;;;;;75.75;60.00;5.30;65.20;;;;;;5035097;28;8875;-63
2022/03/09 07:39:35;;;;;;;;;82.25;64.75;5.70;62.90;;;;;;5034756;28;8777;-64
2022/03/09 07:42:02;;;;;;;;;82.25;67.25;5.90;61.00;;;;;;5034825;28;8796;-63
2022/03/09 07:44:28;;;;;;;;;79.25;63.50;6.00;61.30;;;;;;5033840;28;8762;-64
2022/03/09 07:46:54;;;;;;;;;81.50;63.75;5.60;61.60;;;;;;5035106;28;8796;-63
2022/03/09 07:49:20;;;;;;;;;81.00;65.00;5.40;62.50;;;;;;5034693;28;8764;-63
2022/03/09 07:51:46;;;;;;;;;84.50;66.25;5.00;64.10;;;;;;5034192;28;9470;-63
2022/03/09 07:54:12;;;;;;;;;85.25;65.25;5.10;64.30;;;;;;5034442;28;8956;-63
2022/03/09 07:56:39;;;;;;;;;84.00;65.25;4.70;65.60;;;;;;5034800;28;8995;-63
2022/03/09 07:59:06;;;;;;;;;84.75;65.75;5.00;65.30;;;;;;5034769;28;8793;-63
2022/03/09 08:01:32;;;;;;;;;76.00;61.25;5.60;63.80;;;;;;5034271;28;8801;-63
2022/03/09 08:03:58;;;;;;;;;78.50;62.25;5.50;62.30;;;;;;5034591;28;8782;-63
2022/03/09 08:06:23;;;;;;;;;71.50;57.25;5.20;63.20;;;;;;5034479;28;8805;-63
2022/03/09 08:08:49;;;;;;;;;80.50;64.00;5.20;64.00;;;;;;5034338;28;8775;-63
2022/03/09 08:11:15;;;;;;;;;80.50;62.50;5.00;64.00;;;;;;5034452;28;9105;-63
2022/03/09 08:13:41;;;;;;;;;83.50;66.25;5.00;65.20;;;;;;5034387;28;8848;-63
2022/03/09 08:16:07;;;;;;;;;85.75;67.00;6.00;62.40;;;;;;5034658;28;8770;-63
2022/03/09 08:18:33;;;;;;;;;85.75;69.00;6.20;61.00;;;;;;5034581;28;9554;-63
2022/03/09 08:20:59;;;;;;;;;77.25;61.75;6.40;60.20;;;;;;5034163;28;8786;-63
2022/03/09 08:23:25;;;;;;;;;83.50;65.00;6.00;58.30;;;;;;5034200;28;8816;-63
2022/03/09 08:25:52;;;;;;;;;83.75;67.25;6.40;57.90;;;;;;5034192;28;8778;-63
2022/03/09 08:28:18;;;;;;;;;78.25;60.75;6.90;56.90;;;;;;5034536;28;8801;-64
2022/03/09 08:30:44;;;;;;;;;82.00;65.25;7.20;55.80;;;;;;5034504;28;8800;-64
2022/03/09 08:33:10;;;;;;;;;64.50;52.25;7.70;52.80;;;;;;5034226;28;8785;-64
2022/03/09 08:35:36;;;;;;;;;69.75;56.25;7.90;51.00;;;;;;5034438;28;8864;-63
2022/03/09 08:38:03;;;;;;;;;77.75;61.50;7.40;52.80;;;;;;5034029;28;9496;-63
2022/03/09 08:40:28;;;;;;;;;75.00;61.00;7.80;53.10;;;;;;5034313;28;9425;-64
2022/03/09 08:42:54;;;;;;;;;83.00;67.00;8.20;52.10;;;;;;5034081;28;8796;-63
2022/03/09 08:45:20;;;;;;;;;79.00;61.25;7.70;53.70;;;;;;5034162;28;8778;-63
2022/03/09 08:47:46;;;;;;;;;85.25;65.75;7.90;53.50;;;;;;5034263;28;8793;-63
2022/03/09 08:50:12;;;;;;;;;77.75;61.00;8.10;53.60;;;;;;5034211;28;8766;-63
2022/03/09 08:52:38;;;;;;;;;75.75;60.75;8.00;52.20;;;;;;5034174;28;8773;-63
2022/03/09 08:55:04;;;;;;;;;72.00;59.00;8.40;50.30;;;;;;5033544;28;8846;-63
2022/03/09 08:57:31;;;;;;;;;69.75;53.00;8.10;50.60;;;;;;5033762;28;9432;-64
2022/03/09 09:00:05;;;;;;;;;65.75;53.00;8.20;50.80;;;;;;5034092;28;8770;-61
2022/03/09 09:02:31;;;;;;;;;64.25;53.25;7.70;51.20;;;;;;5036486;28;8781;-64
2022/03/09 09:04:57;;;;;;;;;72.25;56.75;7.10;53.30;;;;;;5037983;28;8758;-64
2022/03/09 09:07:23;;;;;;;;;60.75;49.25;7.00;54.80;;;;;;5037916;28;8802;-64
2022/03/09 09:09:50;;;;;;;;;63.00;51.75;7.20;55.00;;;;;;5037733;28;8754;-64
2022/03/09 09:12:16;;;;;;;;;62.00;50.75;7.60;52.50;;;;;;5037577;28;8766;-64
2022/03/09 09:14:42;;;;;;;;;69.50;54.50;7.00;53.20;;;;;;5037676;28;8816;-64
2022/03/09 09:17:07;;;;;;;;;52.25;43.00;6.90;54.00;;;;;;5037444;28;8833;-64
2022/03/09 09:19:34;;;;;;;;;58.25;47.50;6.70;53.50;;;;;;5037514;28;8791;-64
2022/03/09 09:22:01;;;;;;;;;62.00;49.00;7.00;53.90;;;;;;5037508;28;8801;-64
2022/03/09 09:24:27;;;;;;;;;63.00;52.00;7.30;53.30;;;;;;5037618;28;8837;-64
2022/03/09 09:26:53;;;;;;;;;58.50;47.50;7.00;53.20;;;;;;5037505;28;8758;-63
2022/03/09 09:29:19;;;;;;;;;58.75;48.75;6.90;54.70;;;;;;5037398;28;8780;-62
2022/03/09 09:31:46;;;;;;;;;66.25;50.75;6.90;54.20;;;;;;5037522;28;8948;-62
2022/03/09 09:34:11;;;;;;;;;53.25;45.25;7.00;55.30;;;;;;5037330;28;8774;-62
2022/03/09 09:36:39;;;;;;;;;59.00;47.25;7.60;54.00;;;;;;5037122;28;8810;-62
2022/03/09 09:39:04;;;;;;;;;49.25;44.00;7.20;54.00;;;;;;5037420;28;8851;-62
2022/03/09 09:41:33;;;;;;;;;57.25;45.25;6.60;56.90;;;;;;5019813;28;8755;-62
2022/03/09 09:44:00;;;;;;;;;59.25;49.00;6.40;57.20;;;;;;5037110;28;8777;-62
2022/03/09 09:46:28;;;;;;;;;60.00;48.75;6.30;59.00;;;;;;5037102;28;8778;-62
2022/03/09 09:48:53;;;;;;;;;59.00;46.50;6.40;59.90;;;;;;5036969;28;8770;-62
2022/03/09 09:51:23;;;;;;;;;63.00;50.00;6.30;60.50;;;;;;5036821;28;8885;-62
2022/03/09 09:53:49;;;;;;;;;58.75;48.25;6.60;60.10;;;;;;5036977;28;8960;-62
2022/03/09 09:56:16;;;;;;;;;62.25;48.00;6.40;59.70;;;;;;5037070;28;9724;-62
2022/03/09 09:58:44;;;;;;;;;42.00;36.75;6.40;60.10;;;;;;5036790;28;8789;-62
2022/03/09 10:01:11;;;;;;;;;50.75;45.25;6.50;60.50;;;;;;5037062;28;8778;-62
2022/03/09 10:03:37;;;;;;;;;59.50;48.50;5.90;63.10;;;;;;5036997;28;9542;-62
2022/03/09 10:06:03;;;;;;;;;62.25;52.25;6.30;62.40;;;;;;5036677;28;8758;-62
2022/03/09 10:08:29;;;;;;;;;54.00;43.00;6.30;63.20;;;;;;5019178;28;8904;-62
2022/03/09 10:11:03;;;;;;;;;58.75;49.25;6.40;62.40;;;;;;5036643;28;8797;-62
2022/03/09 10:13:30;;;;;;;;;55.00;44.00;7.00;60.80;;;;;;5035541;28;8770;-62
2022/03/09 10:16:18;;;;;;;;;64.00;50.25;7.50;60.60;;;;;;5036528;28;8786;-62
2022/03/09 10:18:54;;;;;;;;;64.00;53.25;7.90;57.60;;;;;;5034923;28;8786;-62
2022/03/09 10:21:26;;;;;;;;;53.75;46.00;8.00;56.40;;;;;;5036315;28;8766;-62
2022/03/09 10:23:56;;;;;;;;;58.00;47.00;7.70;56.80;;;;;;5036527;28;8909;-62
2022/03/09 10:26:27;;;;;;;;;56.00;46.50;7.30;58.00;;;;;;5036261;28;8774;-62
2022/03/09 10:29:02;;;;;;;;;55.50;44.00;7.10;58.20;;;;;;5036164;28;8850;-63
2022/03/09 10:31:36;;;;;;;;;54.00;45.50;6.60;60.10;;;;;;5036187;28;8852;-63
2022/03/09 10:34:23;;;;;;;;;54.75;46.50;6.70;60.60;;;;;;5036572;28;8758;-63
2022/03/09 10:37:06;;;;;;;;;62.75;52.00;6.60;59.70;;;;;;5036183;28;8837;-63
2022/03/09 10:39:36;;;;;;;;;62.75;51.00;7.10;60.70;;;;;;5036373;28;8800;-63
2022/03/09 10:42:04;;;;;;;;;61.00;49.00;7.10;58.70;;;;;;5036044;28;8782;-62
2022/03/09 10:45:07;;;;;;;;;60.75;50.50;7.20;59.20;;;;;;5035913;28;8813;-62
2022/03/09 10:47:37;;;;;;;;;55.50;47.00;7.40;59.20;;;;;;4994256;28;8790;-62
2022/03/09 10:50:20;;;;;;;;;56.00;46.75;7.00;59.60;;;;;;4994226;28;9423;-62
2022/03/09 10:52:52;;;;;;;;;56.75;45.00;6.80;60.80;;;;;;4994308;28;8763;-62
2022/03/09 10:55:35;;;;;;;;;60.50;50.25;6.50;60.40;;;;;;4994015;28;8834;-62
2022/03/09 10:58:19;;;;;;;;;56.00;46.75;6.70;61.50;;;;;;4994143;28;8854;-62
2022/03/09 11:00:47;;;;;;;;;57.50;50.25;7.00;60.40;;;;;;4994042;28;8939;-63
2022/03/09 11:03:16;;;;;;;;;67.75;52.50;6.90;60.70;;;;;;4994430;28;8767;-62
2022/03/09 11:05:53;;;;;;;;;74.25;57.75;7.00;61.90;;;;;;4994078;28;8848;-62
2022/03/09 11:08:26;;;;;;;;;68.00;54.00;6.80;62.30;;;;;;4994080;28;8797;-62
2022/03/09 11:10:55;;;;;;;;;66.25;53.25;6.80;63.70;;;;;;4994039;28;8820;-62
2022/03/09 11:13:22;;;;;;;;;52.50;44.25;7.10;62.70;;;;;;4993881;28;8852;-62
2022/03/09 11:15:48;;;;;;;;;60.75;51.75;7.10;62.70;;;;;;4993651;28;8774;-63
2022/03/09 11:18:19;;;;;;;;;52.75;44.00;7.10;61.20;;;;;;4993721;28;9480;-63
2022/03/09 11:20:50;;;;;;;;;63.75;50.00;7.10;61.80;;;;;;4993761;28;8801;-62
2022/03/09 11:23:17;;;;;;;;;56.25;47.50;7.10;62.20;;;;;;5018153;28;8770;-62
2022/03/09 11:25:51;;;;;;;;;61.00;49.25;6.90;63.10;;;;;;5034948;28;8793;-63
2022/03/09 11:28:30;;;;;;;;;61.75;50.50;7.10;61.20;;;;;;5035076;28;8766;-63
2022/03/09 11:31:04;;;;;;;;;52.50;45.75;7.00;61.00;;;;;;5035075;28;8884;-63
2022/03/09 11:33:40;;;;;;;;;58.50;47.25;7.00;61.10;;;;;;5035322;28;9436;-63
2022/03/09 11:36:21;;;;;;;;;50.75;42.50;6.70;61.50;;;;;;5035143;28;8793;-62
2022/03/09 11:38:48;;;;;;;;;60.25;49.75;6.60;62.20;;;;;;5034933;28;8788;-63
2022/03/09 11:41:32;;;;;;;;;54.00;43.50;6.70;62.20;;;;;;5035046;28;8786;-63
2022/03/09 11:44:20;;;;;;;;;54.50;47.00;6.60;62.50;;;;;;5035196;28;9703;-62
2022/03/09 11:47:00;;;;;;;;;57.00;45.50;6.60;62.10;;;;;;5035026;28;8771;-62
2022/03/09 11:49:49;;;;;;;;;55.75;44.75;6.40;62.00;;;;;;5034967;28;8785;-63
2022/03/09 11:52:25;;;;;;;;;67.25;51.00;6.40;62.80;;;;;;5034849;28;9428;-63
2022/03/09 11:54:56;;;;;;;;;54.50;46.75;6.90;62.00;;;;;;5034343;28;8834;-63
2022/03/09 11:57:25;;;;;;;;;60.75;47.75;6.80;60.10;;;;;;5034766;28;8932;-63
2022/03/09 12:00:15;;;;;;;;;59.25;47.00;6.80;59.90;;;;;;5034839;28;8763;-63
2022/03/09 12:02:51;;;;;;;;;57.50;46.25;7.00;60.50;;;;;;5029274;28;8763;-63
2022/03/09 12:05:29;;;;;;;;;56.25;45.00;7.50;59.00;;;;;;5034853;28;8856;-63
2022/03/09 12:08:15;;;;;;;;;60.25;50.25;7.30;58.90;;;;;;5034374;28;8801;-63
2022/03/09 12:10:49;;;;;;;;;59.50;48.00;7.20;59.50;;;;;;5034718;28;8766;-63
2022/03/09 12:13:19;;;;;;;;;63.25;50.50;7.30;60.00;;;;;;5034532;28;8763;-63
2022/03/09 12:16:04;;;;;;;;;63.50;52.75;7.40;58.70;;;;;;5034634;28;9432;-63
2022/03/09 12:18:41;;;;;;;;;59.25;47.75;7.80;58.00;;;;;;5034487;28;9437;-63
2022/03/09 12:21:09;;;;;;;;;38.25;36.50;8.00;56.50;;;;;;5034329;28;8851;-63
2022/03/09 12:23:35;;;;;;;;;49.50;42.25;7.10;58.00;;;;;;5034367;28;8883;-63
2022/03/09 12:26:02;;;;;;;;;64.50;51.25;6.50;60.60;;;;;;5034228;28;9468;-63
2022/03/09 12:28:36;;;;;;;;;61.50;49.50;6.80;60.80;;;;;;5033962;28;8782;-62
2022/03/09 12:31:02;;;;;;;;;59.25;50.00;7.20;60.60;;;;;;5034710;28;8762;-62
2022/03/09 12:33:33;;;;;;;;;61.00;48.25;7.70;57.50;;;;;;5034088;28;9420;-62
2022/03/09 12:36:14;;;;;;;;;59.25;49.25;8.10;55.70;;;;;;5034145;28;8766;-63
2022/03/09 12:38:42;;;;;;;;;58.00;46.50;8.10;54.70;;;;;;5038296;28;8818;-61
2022/03/09 12:41:33;;;;;;;;;39.50;37.25;8.30;55.20;;;;;;5038196;28;9062;-62
2022/03/09 12:44:03;;;;;;;;;51.50;46.00;8.00;55.10;;;;;;5038228;28;8782;-62
2022/03/09 12:46:30;;;;;;;;;53.50;44.50;8.00;56.10;;;;;;5038160;28;9034;-63
2022/03/09 12:49:06;;;;;;;;;55.00;43.00;8.00;55.60;;;;;;5038055;28;8788;-62